createdAt,value
2022-08-30T00:00:55.924Z,17.98
2022-08-30T00:01:58.073Z,17.99
2022-08-30T00:03:01.328Z,18.00
2022-08-30T00:04:03.610Z,18.01
2022-08-30T00:05:05.746Z,18.02
2022-08-30T00:06:08.603Z,17.97
2022-08-30T00:07:10.382Z,17.97
2022-08-30T00:08:12.807Z,17.98
2022-08-30T00:09:15.462Z,17.98
2022-08-30T00:10:17.497Z,18.00
2022-08-30T00:11:21.725Z,17.99
2022-08-30T00:12:23.548Z,17.97
2022-08-30T00:13:25.368Z,17.97
2022-08-30T00:14:27.791Z,17.97
2022-08-30T00:15:30.566Z,17.98
2022-08-30T00:16:32.368Z,18.01
2022-08-30T00:17:34.186Z,18.02
2022-08-30T00:18:36.678Z,18.04
2022-08-30T00:19:38.584Z,18.04
2022-08-30T00:20:40.474Z,18.05
2022-08-30T00:21:42.307Z,18.06
2022-08-30T00:22:44.706Z,18.07
2022-08-30T00:23:46.536Z,18.05
2022-08-30T00:24:49.727Z,18.04
2022-08-30T00:25:51.950Z,18.03
2022-08-30T00:26:53.859Z,18.05
2022-08-30T00:27:55.758Z,18.06
2022-08-30T00:28:57.587Z,18.06
2022-08-30T00:29:59.517Z,18.07
2022-08-30T00:31:02.543Z,18.07
2022-08-30T00:32:04.802Z,18.06
2022-08-30T00:33:06.606Z,18.04
2022-08-30T00:34:08.451Z,18.00
2022-08-30T00:35:12.302Z,17.97
2022-08-30T00:36:14.156Z,17.98
2022-08-30T00:37:16.389Z,17.99
2022-08-30T00:38:18.287Z,18.01
2022-08-30T00:39:20.104Z,18.02
2022-08-30T00:40:27.228Z,18.03
2022-08-30T00:41:29.618Z,18.03
2022-08-30T00:42:31.878Z,18.03
2022-08-30T00:43:36.594Z,18.03
2022-08-30T00:44:39.162Z,18.02
2022-08-30T00:45:41.408Z,17.99
2022-08-30T00:46:43.373Z,18.01
2022-08-30T00:47:45.907Z,18.01
2022-08-30T00:48:49.367Z,17.99
2022-08-30T00:49:53.330Z,17.98
2022-08-30T00:50:58.231Z,17.97
2022-08-30T00:52:00.820Z,18.00
2022-08-30T00:53:04.955Z,18.01
2022-08-30T00:54:07.452Z,18.03
2022-08-30T00:55:10.216Z,18.04
2022-08-30T00:56:12.771Z,18.04
2022-08-30T00:57:15.365Z,18.05
2022-08-30T00:58:22.086Z,18.07
2022-08-30T00:59:24.585Z,18.08
2022-08-30T01:00:26.958Z,18.05
2022-08-30T01:01:30.410Z,18.02
2022-08-30T01:02:35.920Z,18.03
2022-08-30T01:03:39.092Z,18.03
2022-08-30T01:04:43.326Z,18.05
2022-08-30T01:05:46.105Z,18.02
2022-08-30T01:06:48.036Z,18.00
2022-08-30T01:07:50.660Z,17.99
2022-08-30T01:08:52.481Z,17.99
2022-08-30T01:09:54.530Z,18.00
2022-08-30T01:10:57.594Z,18.02
2022-08-30T01:11:59.391Z,17.98
2022-08-30T01:13:01.254Z,17.95
2022-08-30T01:14:03.584Z,17.93
2022-08-30T01:15:06.205Z,17.92
2022-08-30T01:16:08.523Z,17.94
2022-08-30T01:17:11.546Z,17.96
2022-08-30T01:18:17.614Z,17.96
2022-08-30T01:19:36.600Z,17.97
2022-08-30T01:20:42.104Z,17.93
2022-08-30T01:21:48.291Z,17.93
2022-08-30T01:22:50.119Z,17.95
2022-08-30T01:23:54.313Z,17.95
2022-08-30T01:24:57.934Z,17.98
2022-08-30T01:26:00.741Z,17.98
2022-08-30T01:27:02.522Z,17.97
2022-08-30T01:28:07.136Z,17.97
2022-08-30T01:29:12.200Z,17.96
2022-08-30T01:30:14.258Z,17.98
2022-08-30T01:31:16.334Z,18.00
2022-08-30T01:32:21.132Z,18.01
2022-08-30T01:33:24.174Z,18.01
2022-08-30T01:34:26.321Z,18.01
2022-08-30T01:35:28.390Z,18.03
2022-08-30T01:36:30.641Z,18.00
2022-08-30T01:37:33.504Z,17.98
2022-08-30T01:38:37.032Z,17.93
2022-08-30T01:39:39.199Z,17.93
2022-08-30T01:40:41.047Z,17.92
2022-08-30T01:41:43.967Z,17.93
2022-08-30T01:42:46.261Z,17.95
2022-08-30T01:43:49.231Z,17.96
2022-08-30T01:44:51.260Z,17.99
2022-08-30T01:45:53.174Z,17.99
2022-08-30T01:46:55.621Z,18.02
2022-08-30T01:47:57.451Z,18.01
2022-08-30T01:49:06.246Z,17.98
2022-08-30T01:50:08.834Z,17.91
2022-08-30T01:51:12.378Z,17.89
2022-08-30T01:52:15.029Z,17.91
2022-08-30T01:53:16.996Z,17.91
2022-08-30T01:54:19.008Z,17.89
2022-08-30T01:55:20.995Z,17.92
2022-08-30T01:56:23.680Z,17.91
2022-08-30T01:57:27.142Z,17.93
2022-08-30T01:58:29.003Z,17.97
2022-08-30T01:59:31.138Z,17.99
2022-08-30T02:00:33.143Z,17.95
2022-08-30T02:01:37.227Z,17.89
2022-08-30T02:02:39.523Z,17.90
2022-08-30T02:03:43.838Z,17.90
2022-08-30T02:04:46.133Z,17.91
2022-08-30T02:05:48.841Z,17.93
2022-08-30T02:06:51.051Z,17.95
2022-08-30T02:07:53.274Z,17.97
2022-08-30T02:08:55.153Z,17.98
2022-08-30T02:09:57.105Z,17.96
2022-08-30T02:11:00.289Z,17.97
2022-08-30T02:12:02.159Z,17.98
2022-08-30T02:13:03.982Z,17.98
2022-08-30T02:14:06.615Z,17.95
2022-08-30T02:15:10.089Z,17.93
2022-08-30T02:16:16.373Z,17.94
2022-08-30T02:17:19.657Z,17.93
2022-08-30T02:18:22.219Z,17.95
2022-08-30T02:19:24.133Z,17.95
2022-08-30T02:20:25.967Z,17.93
2022-08-30T02:21:30.774Z,17.88
2022-08-30T02:22:33.097Z,17.89
2022-08-30T02:23:35.284Z,17.90
2022-08-30T02:24:37.161Z,17.90
2022-08-30T02:25:39.245Z,17.89
2022-08-30T02:26:41.131Z,17.88
2022-08-30T02:27:42.973Z,17.87
2022-08-30T02:28:49.980Z,17.82
2022-08-30T02:29:52.222Z,17.80
2022-08-30T02:30:54.499Z,17.84
2022-08-30T02:31:56.486Z,17.82
2022-08-30T02:32:58.467Z,17.82
2022-08-30T02:34:00.261Z,17.82
2022-08-30T02:35:02.069Z,17.83
2022-08-30T02:36:04.805Z,17.86
2022-08-30T02:37:06.793Z,17.84
2022-08-30T02:38:09.128Z,17.83
2022-08-30T02:39:11.971Z,17.77
2022-08-30T02:40:13.832Z,17.72
2022-08-30T02:41:15.838Z,17.74
2022-08-30T02:42:17.764Z,17.74
2022-08-30T02:43:19.798Z,17.73
2022-08-30T02:44:21.837Z,17.70
2022-08-30T02:45:24.468Z,17.69
2022-08-30T02:46:27.364Z,17.66
2022-08-30T02:47:35.289Z,17.68
2022-08-30T02:48:37.184Z,17.69
2022-08-30T02:49:38.999Z,17.72
2022-08-30T02:50:44.598Z,17.73
2022-08-30T02:51:46.419Z,17.74
2022-08-30T02:52:48.532Z,17.73
2022-08-30T02:53:50.303Z,17.75
2022-08-30T02:54:52.125Z,17.76
2022-08-30T02:55:53.974Z,17.73
2022-08-30T02:56:56.418Z,17.73
2022-08-30T02:57:58.256Z,17.71
2022-08-30T02:59:00.100Z,17.71
2022-08-30T03:00:02.110Z,17.72
2022-08-30T03:01:05.997Z,17.71
2022-08-30T03:02:07.938Z,17.72
2022-08-30T03:03:10.140Z,17.73
2022-08-30T03:04:12.015Z,17.73
2022-08-30T03:05:14.715Z,17.73
2022-08-30T03:06:16.528Z,17.73
2022-08-30T03:07:18.735Z,17.72
2022-08-30T03:08:20.656Z,17.71
2022-08-30T03:09:22.817Z,17.74
2022-08-30T03:10:24.639Z,17.72
2022-08-30T03:11:26.965Z,17.72
2022-08-30T03:12:28.902Z,17.75
2022-08-30T03:13:30.781Z,17.75
2022-08-30T03:14:33.150Z,17.75
2022-08-30T03:15:35.656Z,17.73
2022-08-30T03:16:37.541Z,17.75
2022-08-30T03:17:39.837Z,17.77
2022-08-30T03:18:43.840Z,17.78
2022-08-30T03:19:46.363Z,17.79
2022-08-30T03:20:53.987Z,17.72
2022-08-30T03:21:56.866Z,17.67
2022-08-30T03:22:58.756Z,17.63
2022-08-30T03:24:00.634Z,17.64
2022-08-30T03:25:02.825Z,17.66
2022-08-30T03:26:04.776Z,17.63
2022-08-30T03:27:07.861Z,17.60
2022-08-30T03:28:09.760Z,17.61
2022-08-30T03:29:11.630Z,17.62
2022-08-30T03:30:14.068Z,17.62
2022-08-30T03:31:15.926Z,17.62
2022-08-30T03:32:17.939Z,17.63
2022-08-30T03:33:20.164Z,17.65
2022-08-30T03:34:24.949Z,17.66
2022-08-30T03:35:26.895Z,17.67
2022-08-30T03:36:31.650Z,17.65
2022-08-30T03:37:33.935Z,17.60
2022-08-30T03:38:36.107Z,17.62
2022-08-30T03:39:38.424Z,17.63
2022-08-30T03:40:40.335Z,17.63
2022-08-30T03:41:42.426Z,17.65
2022-08-30T03:42:44.598Z,17.65
2022-08-30T03:43:49.516Z,17.66
2022-08-30T03:44:52.685Z,17.66
2022-08-30T03:45:54.567Z,17.66
2022-08-30T03:46:56.883Z,17.62
2022-08-30T03:47:59.327Z,17.63
2022-08-30T03:49:01.854Z,17.61
2022-08-30T03:50:05.278Z,17.60
2022-08-30T03:51:07.266Z,17.60
2022-08-30T03:52:09.127Z,17.60
2022-08-30T03:53:10.932Z,17.61
2022-08-30T03:54:12.725Z,17.59
2022-08-30T03:55:15.125Z,17.58
2022-08-30T03:56:17.541Z,17.55
2022-08-30T03:57:19.853Z,17.55
2022-08-30T03:58:22.423Z,17.56
2022-08-30T03:59:24.441Z,17.58
2022-08-30T04:00:26.898Z,17.51
2022-08-30T04:01:28.757Z,17.52
2022-08-30T04:02:30.695Z,17.52
2022-08-30T04:03:32.610Z,17.52
2022-08-30T04:04:34.559Z,17.46
2022-08-30T04:05:36.434Z,17.47
2022-08-30T04:06:38.245Z,17.51
2022-08-30T04:07:40.315Z,17.51
2022-08-30T04:08:43.445Z,17.49
2022-08-30T04:09:47.591Z,17.52
2022-08-30T04:10:49.706Z,17.53
2022-08-30T04:11:51.566Z,17.51
2022-08-30T04:12:53.482Z,17.44
2022-08-30T04:13:57.033Z,17.41
2022-08-30T04:14:58.974Z,17.43
2022-08-30T04:16:00.967Z,17.43
2022-08-30T04:17:02.830Z,17.45
2022-08-30T04:18:04.650Z,17.44
2022-08-30T04:19:06.476Z,17.42
2022-08-30T04:20:08.680Z,17.40
2022-08-30T04:21:14.040Z,17.40
2022-08-30T04:22:16.227Z,17.40
2022-08-30T04:23:18.386Z,17.38
2022-08-30T04:24:20.266Z,17.38
2022-08-30T04:25:22.138Z,17.40
2022-08-30T04:26:23.916Z,17.42
2022-08-30T04:27:31.220Z,17.44
2022-08-30T04:28:35.326Z,17.46
2022-08-30T04:29:37.470Z,17.45
2022-08-30T04:30:40.478Z,17.48
2022-08-30T04:31:42.525Z,17.46
2022-08-30T04:32:44.973Z,17.47
2022-08-30T04:33:46.811Z,17.50
2022-08-30T04:34:48.685Z,17.52
2022-08-30T04:35:51.961Z,17.52
2022-08-30T04:36:55.954Z,17.47
2022-08-30T04:37:58.775Z,17.46
2022-08-30T04:39:00.588Z,17.46
2022-08-30T04:40:02.558Z,17.48
2022-08-30T04:41:09.777Z,17.50
2022-08-30T04:42:11.791Z,17.50
2022-08-30T04:43:13.649Z,17.51
2022-08-30T04:44:19.202Z,17.53
2022-08-30T04:45:22.379Z,17.54
2022-08-30T04:46:24.359Z,17.53
2022-08-30T04:47:26.351Z,17.52
2022-08-30T04:48:28.178Z,17.50
2022-08-30T04:49:32.638Z,17.43
2022-08-30T04:50:34.520Z,17.44
2022-08-30T04:51:36.335Z,17.44
2022-08-30T04:52:38.366Z,17.45
2022-08-30T04:53:40.827Z,17.45
2022-08-30T04:54:42.709Z,17.37
2022-08-30T04:55:44.504Z,17.36
2022-08-30T04:56:46.374Z,17.37
2022-08-30T04:57:48.746Z,17.38
2022-08-30T04:58:53.650Z,17.41
2022-08-30T04:59:55.670Z,17.44
2022-08-30T05:00:57.604Z,17.46
2022-08-30T05:01:59.967Z,17.45
2022-08-30T05:03:01.945Z,17.47
2022-08-30T05:04:04.513Z,17.47
2022-08-30T05:05:25.419Z,17.44
2022-08-30T05:06:28.292Z,17.45
2022-08-30T05:07:31.547Z,17.42
2022-08-30T05:08:33.381Z,17.40
2022-08-30T05:09:35.256Z,17.39
2022-08-30T05:10:41.575Z,17.39
2022-08-30T05:11:43.735Z,17.39
2022-08-30T05:12:45.579Z,17.39
2022-08-30T05:13:47.458Z,17.36
2022-08-30T05:14:49.468Z,17.35
2022-08-30T05:15:51.442Z,17.33
2022-08-30T05:16:56.035Z,17.28
2022-08-30T05:17:57.953Z,17.27
2022-08-30T05:18:59.983Z,17.29
2022-08-30T05:20:02.387Z,17.31
2022-08-30T05:21:11.970Z,17.34
2022-08-30T05:22:13.907Z,17.31
2022-08-30T05:23:15.886Z,17.26
2022-08-30T05:24:17.978Z,17.21
2022-08-30T05:25:21.649Z,17.17
2022-08-30T05:26:25.314Z,17.16
2022-08-30T05:27:27.256Z,17.13
2022-08-30T05:28:29.099Z,17.13
2022-08-30T05:29:31.679Z,17.14
2022-08-30T05:30:34.675Z,17.16
2022-08-30T05:31:36.752Z,17.17
2022-08-30T05:32:38.531Z,17.18
2022-08-30T05:33:40.526Z,17.19
2022-08-30T05:34:42.340Z,17.18
2022-08-30T05:35:44.167Z,17.21
2022-08-30T05:36:46.006Z,17.20
2022-08-30T05:37:47.860Z,17.16
2022-08-30T05:38:50.935Z,17.18
2022-08-30T05:39:52.838Z,17.21
2022-08-30T05:40:54.712Z,17.24
2022-08-30T05:41:57.822Z,17.24
2022-08-30T05:42:59.711Z,17.25
2022-08-30T05:44:02.801Z,17.25
2022-08-30T05:45:05.621Z,17.28
2022-08-30T05:46:08.992Z,17.32
2022-08-30T05:47:10.958Z,17.33
2022-08-30T05:48:13.044Z,17.33
2022-08-30T05:49:15.212Z,17.34
2022-08-30T05:50:17.175Z,17.37
2022-08-30T05:51:20.517Z,17.37
2022-08-30T05:52:22.334Z,17.34
2022-08-30T05:53:24.554Z,17.36
2022-08-30T05:54:26.383Z,17.40
2022-08-30T05:55:28.206Z,17.46
2022-08-30T05:56:37.104Z,17.47
2022-08-30T05:57:40.220Z,17.48
2022-08-30T05:58:42.410Z,17.48
2022-08-30T05:59:44.761Z,17.46
2022-08-30T06:00:46.886Z,17.46
2022-08-30T06:01:48.718Z,17.46
2022-08-30T06:02:53.604Z,17.47
2022-08-30T06:04:00.352Z,17.48
2022-08-30T06:05:05.379Z,17.49
2022-08-30T06:06:07.695Z,17.45
2022-08-30T06:07:11.717Z,17.46
2022-08-30T06:08:16.542Z,17.40
2022-08-30T06:09:18.895Z,17.43
2022-08-30T06:10:20.737Z,17.45
2022-08-30T06:11:23.844Z,17.50
2022-08-30T06:12:26.160Z,17.51
2022-08-30T06:13:28.005Z,17.53
2022-08-30T06:14:29.844Z,17.54
2022-08-30T06:15:31.700Z,17.48
2022-08-30T06:16:34.035Z,17.49
2022-08-30T06:17:36.188Z,17.51
2022-08-30T06:18:37.989Z,17.53
2022-08-30T06:19:40.235Z,17.51
2022-08-30T06:20:43.104Z,17.55
2022-08-30T06:21:48.047Z,17.52
2022-08-30T06:22:49.905Z,17.54
2022-08-30T06:23:52.316Z,17.57
2022-08-30T06:24:57.429Z,17.54
2022-08-30T06:26:04.901Z,17.52
2022-08-30T06:27:06.803Z,17.53
2022-08-30T06:28:08.739Z,17.56
2022-08-30T06:29:12.257Z,17.59
2022-08-30T06:30:14.264Z,17.60
2022-08-30T06:31:17.257Z,17.65
2022-08-30T06:32:19.375Z,17.64
2022-08-30T06:33:21.177Z,17.68
2022-08-30T06:34:23.155Z,17.73
2022-08-30T06:35:25.750Z,17.75
2022-08-30T06:36:27.655Z,17.83
2022-08-30T06:37:30.318Z,17.87
2022-08-30T06:38:32.281Z,17.91
2022-08-30T06:39:34.104Z,17.93
2022-08-30T06:40:37.015Z,17.96
2022-08-30T06:41:40.394Z,17.94
2022-08-30T06:42:42.284Z,17.93
2022-08-30T06:43:48.688Z,17.97
2022-08-30T06:44:51.470Z,18.00
2022-08-30T06:45:53.427Z,18.03
2022-08-30T06:46:55.255Z,18.03
2022-08-30T06:49:01.139Z,18.05
2022-08-30T06:50:02.950Z,18.07
2022-08-30T06:51:05.474Z,18.09
2022-08-30T06:52:07.329Z,18.12
2022-08-30T06:53:10.095Z,18.17
2022-08-30T06:54:12.497Z,18.20
2022-08-30T06:55:15.319Z,18.19
2022-08-30T06:56:17.825Z,18.23
2022-08-30T06:57:19.638Z,18.30
2022-08-30T06:58:21.458Z,18.37
2022-08-30T06:59:23.275Z,18.40
2022-08-30T07:00:25.230Z,18.41
2022-08-30T07:01:28.419Z,18.46
2022-08-30T07:02:30.440Z,18.51
2022-08-30T07:03:32.358Z,18.51
2022-08-30T07:04:34.550Z,18.50
2022-08-30T07:05:36.371Z,18.45
2022-08-30T07:06:38.386Z,18.45
2022-08-30T07:07:40.390Z,18.39
2022-08-30T07:08:42.317Z,18.39
2022-08-30T07:09:44.803Z,18.40
2022-08-30T07:10:46.925Z,18.43
2022-08-30T07:11:48.923Z,18.48
2022-08-30T07:12:50.862Z,18.52
2022-08-30T07:13:52.702Z,18.56
2022-08-30T07:14:54.637Z,18.62
2022-08-30T07:15:56.543Z,18.63
2022-08-30T07:16:58.505Z,18.66
2022-08-30T07:18:18.785Z,18.71
2022-08-30T07:19:21.423Z,18.70
2022-08-30T07:20:23.423Z,18.71
2022-08-30T07:21:27.486Z,18.69
2022-08-30T07:22:29.581Z,18.64
2022-08-30T07:23:31.488Z,18.65
2022-08-30T07:24:33.387Z,18.70
2022-08-30T07:25:36.975Z,18.72
2022-08-30T07:26:42.907Z,18.72
2022-08-30T07:27:46.330Z,18.73
2022-08-30T07:28:48.356Z,18.77
2022-08-30T07:29:54.201Z,18.79
2022-08-30T07:30:56.048Z,18.77
2022-08-30T07:31:57.898Z,18.85
2022-08-30T07:32:59.761Z,18.86
2022-08-30T07:34:01.817Z,18.89
2022-08-30T07:35:03.867Z,18.91
2022-08-30T07:36:05.885Z,18.94
2022-08-30T07:37:08.167Z,18.93
2022-08-30T07:38:12.942Z,18.96
2022-08-30T07:39:14.738Z,18.97
2022-08-30T07:40:17.462Z,19.00
2022-08-30T07:41:21.294Z,19.05
2022-08-30T07:42:23.200Z,19.06
2022-08-30T07:43:25.352Z,19.08
2022-08-30T07:44:27.179Z,19.14
2022-08-30T07:45:29.222Z,19.15
2022-08-30T07:46:31.353Z,19.18
2022-08-30T07:47:33.226Z,19.21
2022-08-30T07:48:35.632Z,19.23
2022-08-30T07:49:37.761Z,19.20
2022-08-30T07:50:43.353Z,19.23
2022-08-30T07:51:45.310Z,19.22
2022-08-30T07:52:47.160Z,19.25
2022-08-30T07:53:49.133Z,19.28
2022-08-30T07:54:52.813Z,19.27
2022-08-30T07:55:55.209Z,19.28
2022-08-30T07:56:57.101Z,19.28
2022-08-30T07:57:59.272Z,19.33
2022-08-30T07:59:01.179Z,19.36
2022-08-30T08:00:03.405Z,19.39
2022-08-30T08:01:06.679Z,19.39
2022-08-30T08:02:08.602Z,19.39
2022-08-30T08:03:10.661Z,19.39
2022-08-30T08:04:12.528Z,19.45
2022-08-30T08:05:17.644Z,19.48
2022-08-30T08:06:21.963Z,19.52
2022-08-30T08:07:23.895Z,19.54
2022-08-30T08:08:25.847Z,19.57
2022-08-30T08:09:27.686Z,19.60
2022-08-30T08:10:29.510Z,19.65
2022-08-30T08:11:33.989Z,19.71
2022-08-30T08:12:36.523Z,19.74
2022-08-30T08:13:52.987Z,19.73
2022-08-30T08:14:56.300Z,19.78
2022-08-30T08:15:58.238Z,19.78
2022-08-30T08:17:00.527Z,19.80
2022-08-30T08:18:02.436Z,19.82
2022-08-30T08:19:09.220Z,19.89
2022-08-30T08:20:11.545Z,19.90
2022-08-30T08:21:13.761Z,19.94
2022-08-30T08:22:20.850Z,19.98
2022-08-30T08:23:23.302Z,20.05
2022-08-30T08:24:25.124Z,20.07
2022-08-30T08:25:27.522Z,20.07
2022-08-30T08:26:29.439Z,20.03
2022-08-30T08:27:31.406Z,20.00
2022-08-30T08:28:33.211Z,20.00
2022-08-30T08:29:35.095Z,19.99
2022-08-30T08:30:38.150Z,20.01
2022-08-30T08:31:41.711Z,20.04
2022-08-30T08:32:44.052Z,20.07
2022-08-30T08:33:45.947Z,20.13
2022-08-30T08:34:47.866Z,20.17
2022-08-30T08:35:50.068Z,20.23
2022-08-30T08:36:51.911Z,20.29
2022-08-30T08:37:53.880Z,20.31
2022-08-30T08:38:55.791Z,20.37
2022-08-30T08:39:57.799Z,20.37
2022-08-30T08:41:03.090Z,20.42
2022-08-30T08:42:16.879Z,20.44
2022-08-30T08:43:21.855Z,20.45
2022-08-30T08:44:34.759Z,20.52
2022-08-30T08:45:52.184Z,20.61
2022-08-30T08:47:06.005Z,20.65
2022-08-30T08:48:08.574Z,20.69
2022-08-30T08:49:12.176Z,20.69
2022-08-30T08:50:18.602Z,20.72
2022-08-30T08:51:43.562Z,20.75
2022-08-30T08:53:44.446Z,20.74
2022-08-30T08:54:47.158Z,20.81
2022-08-30T08:55:50.860Z,20.86
2022-08-30T08:56:52.762Z,20.86
2022-08-30T08:57:54.618Z,20.85
2022-08-30T08:58:58.056Z,20.82
2022-08-30T08:59:59.945Z,20.81
2022-08-30T09:01:01.851Z,20.83
2022-08-30T09:02:19.539Z,20.89
2022-08-30T09:03:22.730Z,20.95
2022-08-30T09:04:27.081Z,21.01
2022-08-30T09:05:31.922Z,21.03
2022-08-30T09:06:45.504Z,21.08
2022-08-30T09:07:50.156Z,21.17
2022-08-30T09:08:52.095Z,21.25
2022-08-30T09:09:54.165Z,21.34
2022-08-30T09:11:04.766Z,21.39
2022-08-30T09:12:07.799Z,21.46
2022-08-30T09:13:13.727Z,21.52
2022-08-30T09:14:23.778Z,21.57
2022-08-30T09:15:33.729Z,21.58
2022-08-30T09:16:48.357Z,21.64
2022-08-30T09:17:55.303Z,21.66
2022-08-30T09:18:57.152Z,21.64
2022-08-30T09:19:59.977Z,21.70
2022-08-30T09:21:06.514Z,21.73
2022-08-30T09:22:17.268Z,21.76
2022-08-30T09:23:19.145Z,21.76
2022-08-30T09:24:24.529Z,21.83
2022-08-30T09:25:29.626Z,21.88
2022-08-30T09:26:32.958Z,21.91
2022-08-30T09:27:36.558Z,21.95
2022-08-30T09:28:49.397Z,21.98
2022-08-30T09:30:02.020Z,22.05
2022-08-30T09:31:11.394Z,22.11
2022-08-30T09:32:25.505Z,22.17
2022-08-30T09:33:27.721Z,22.18
2022-08-30T09:34:33.085Z,22.25
2022-08-30T09:35:42.133Z,22.30
2022-08-30T09:36:45.662Z,22.32
2022-08-30T09:37:58.389Z,22.36
2022-08-30T09:39:01.860Z,22.45
2022-08-30T09:40:09.808Z,22.50
2022-08-30T09:41:29.227Z,22.54
2022-08-30T09:42:31.326Z,22.61
2022-08-30T09:43:33.926Z,22.68
2022-08-30T09:44:38.291Z,22.72
2022-08-30T09:45:42.883Z,22.77
2022-08-30T09:47:02.984Z,22.83
2022-08-30T09:48:21.991Z,22.92
2022-08-30T09:49:43.807Z,23.01
2022-08-30T09:50:46.742Z,23.04
2022-08-30T09:51:55.719Z,23.11
2022-08-30T09:53:00.473Z,23.20
2022-08-30T09:54:22.615Z,23.27
2022-08-30T09:55:30.566Z,23.31
2022-08-30T09:56:51.179Z,23.41
2022-08-30T09:58:05.308Z,23.50
2022-08-30T09:59:07.264Z,23.54
2022-08-30T10:00:14.538Z,23.61
2022-08-30T10:01:21.148Z,23.67
2022-08-30T10:02:30.647Z,23.72
2022-08-30T10:03:40.334Z,23.78
2022-08-30T10:05:08.848Z,23.85
2022-08-30T10:06:16.433Z,23.90
2022-08-30T10:07:29.009Z,23.96
2022-08-30T10:08:51.532Z,24.04
2022-08-30T10:10:13.703Z,24.18
2022-08-30T10:11:32.408Z,24.32
2022-08-30T10:12:43.283Z,24.46
2022-08-30T10:13:57.259Z,24.56
2022-08-30T10:15:09.424Z,24.63
2022-08-30T10:16:29.355Z,24.71
2022-08-30T10:17:49.618Z,24.77
2022-08-30T10:19:02.139Z,24.84
2022-08-30T10:20:17.346Z,24.83
2022-08-30T10:21:26.240Z,24.90
2022-08-30T10:22:36.387Z,24.99
2022-08-30T10:23:42.970Z,25.05
2022-08-30T10:24:56.240Z,25.13
2022-08-30T10:26:05.917Z,25.20
2022-08-30T10:27:07.770Z,25.25
2022-08-30T10:28:28.258Z,25.32
2022-08-30T10:29:32.996Z,25.37
2022-08-30T10:30:38.498Z,25.46
2022-08-30T10:31:41.600Z,25.52
2022-08-30T10:32:52.416Z,25.60
2022-08-30T10:33:57.468Z,25.67
2022-08-30T10:35:06.483Z,25.74
2022-08-30T10:36:13.702Z,25.79
2022-08-30T10:37:19.673Z,25.87
2022-08-30T10:38:24.802Z,25.89
2022-08-30T10:39:30.874Z,25.94
2022-08-30T10:41:01.396Z,26.00
2022-08-30T10:42:09.545Z,26.10
2022-08-30T10:43:21.128Z,26.10
2022-08-30T10:44:27.701Z,26.18
2022-08-30T10:45:30.815Z,26.27
2022-08-30T10:46:41.490Z,26.29
2022-08-30T10:47:58.062Z,26.39
2022-08-30T10:49:02.279Z,26.48
2022-08-30T10:50:16.808Z,26.53
2022-08-30T10:51:26.017Z,26.61
2022-08-30T10:52:27.801Z,26.55
2022-08-30T10:53:37.517Z,26.58
2022-08-30T10:54:39.466Z,26.63
2022-08-30T10:56:02.987Z,26.68
2022-08-30T10:57:04.858Z,26.78
2022-08-30T10:58:06.951Z,26.81
2022-08-30T10:59:12.011Z,26.83
2022-08-30T11:00:25.161Z,26.86
2022-08-30T11:01:36.533Z,26.92
2022-08-30T11:02:44.372Z,26.99
2022-08-30T11:03:55.542Z,27.08
2022-08-30T11:05:17.608Z,27.15
2022-08-30T11:06:27.596Z,27.23
2022-08-30T11:07:52.051Z,27.29
2022-08-30T11:09:03.036Z,27.34
2022-08-30T11:10:40.363Z,27.36
2022-08-30T11:11:52.246Z,27.44
2022-08-30T11:13:05.771Z,27.43
2022-08-30T11:14:09.862Z,27.48
2022-08-30T11:15:23.614Z,27.54
2022-08-30T11:16:39.725Z,27.60
2022-08-30T11:17:45.927Z,27.69
2022-08-30T11:18:57.800Z,27.76
2022-08-30T11:20:01.667Z,27.85
2022-08-30T11:21:24.960Z,27.87
2022-08-30T11:22:38.785Z,27.94
2022-08-30T11:23:41.233Z,28.02
2022-08-30T11:24:59.606Z,28.11
2022-08-30T11:26:07.531Z,28.21
2022-08-30T11:27:11.498Z,28.23
2022-08-30T11:28:33.368Z,28.21
2022-08-30T11:29:38.147Z,28.29
2022-08-30T11:30:39.916Z,28.36
2022-08-30T11:31:42.379Z,28.39
2022-08-30T11:33:02.322Z,28.44
2022-08-30T11:34:04.798Z,28.44
2022-08-30T11:35:06.746Z,28.37
2022-08-30T11:36:37.793Z,28.37
2022-08-30T11:37:42.020Z,28.42
2022-08-30T11:38:44.594Z,28.48
2022-08-30T11:39:49.288Z,28.55
2022-08-30T11:41:11.365Z,28.63
2022-08-30T11:42:24.941Z,28.75
2022-08-30T11:43:34.597Z,28.73
2022-08-30T11:44:38.545Z,28.75
2022-08-30T11:45:44.536Z,28.78
2022-08-30T11:46:46.839Z,28.85
2022-08-30T11:47:53.314Z,28.92
2022-08-30T11:49:03.072Z,29.01
2022-08-30T11:50:29.335Z,28.92
2022-08-30T11:51:40.827Z,28.97
2022-08-30T11:52:51.352Z,29.04
2022-08-30T11:54:01.086Z,29.09
2022-08-30T11:55:02.943Z,29.10
2022-08-30T11:56:19.099Z,29.21
2022-08-30T11:57:31.925Z,29.29
2022-08-30T11:58:52.352Z,29.35
2022-08-30T11:59:54.133Z,29.30
2022-08-30T12:01:40.797Z,29.24
2022-08-30T12:02:52.732Z,29.25
2022-08-30T12:03:56.916Z,29.19
2022-08-30T12:04:58.857Z,29.19
2022-08-30T12:06:05.238Z,29.28
2022-08-30T12:07:08.207Z,29.35
2022-08-30T12:08:11.654Z,29.41
2022-08-30T12:09:16.711Z,29.43
2022-08-30T12:10:23.806Z,29.51
2022-08-30T12:11:32.593Z,29.48
2022-08-30T12:12:46.886Z,29.59
2022-08-30T12:13:49.519Z,29.59
2022-08-30T12:14:55.025Z,29.69
2022-08-30T12:15:57.289Z,29.61
2022-08-30T12:17:18.126Z,29.54
2022-08-30T12:18:29.801Z,29.39
2022-08-30T12:19:32.743Z,29.40
2022-08-30T12:20:43.056Z,29.41
2022-08-30T12:21:54.764Z,29.39
2022-08-30T12:22:57.830Z,29.45
2022-08-30T12:24:07.838Z,29.53
2022-08-30T12:25:40.770Z,29.60
2022-08-30T12:26:43.723Z,29.74
2022-08-30T12:27:45.863Z,29.74
2022-08-30T12:28:51.998Z,29.81
2022-08-30T12:29:55.776Z,29.84
2022-08-30T12:31:15.401Z,29.85
2022-08-30T12:32:19.555Z,29.87
2022-08-30T12:33:36.583Z,29.86
2022-08-30T12:34:45.966Z,29.88
2022-08-30T12:35:47.782Z,29.95
2022-08-30T12:36:51.855Z,29.99
2022-08-30T12:37:58.967Z,29.94
2022-08-30T12:39:11.464Z,29.79
2022-08-30T12:40:22.869Z,29.85
2022-08-30T12:41:24.966Z,29.91
2022-08-30T12:42:28.311Z,29.97
2022-08-30T12:43:38.890Z,30.02
2022-08-30T12:44:42.946Z,30.10
2022-08-30T12:45:50.729Z,30.23
2022-08-30T12:46:59.797Z,30.36
2022-08-30T12:48:12.705Z,30.44
2022-08-30T12:49:18.035Z,30.46
2022-08-30T12:50:22.556Z,30.48
2022-08-30T12:51:29.222Z,30.35
2022-08-30T12:52:34.295Z,30.40
2022-08-30T12:53:46.388Z,30.44
2022-08-30T12:54:48.555Z,30.38
2022-08-30T12:56:00.795Z,30.40
2022-08-30T12:57:19.215Z,30.40
2022-08-30T12:58:36.014Z,30.48
2022-08-30T12:59:42.094Z,30.53
2022-08-30T13:00:47.085Z,30.55
2022-08-30T13:01:49.429Z,30.58
2022-08-30T13:02:59.833Z,30.65
2022-08-30T13:04:14.245Z,30.63
2022-08-30T13:05:32.500Z,30.64
2022-08-30T13:06:51.470Z,30.61
2022-08-30T13:07:53.389Z,30.67
2022-08-30T13:08:55.804Z,30.70
2022-08-30T13:10:29.871Z,30.72
2022-08-30T13:11:31.755Z,30.65
2022-08-30T13:12:36.243Z,30.61
2022-08-30T13:13:52.233Z,30.54
2022-08-30T13:15:09.795Z,30.54
2022-08-30T13:16:11.629Z,30.53
2022-08-30T13:17:25.094Z,30.68
2022-08-30T13:18:30.218Z,30.75
2022-08-30T13:19:34.636Z,30.81
2022-08-30T13:20:37.164Z,30.83
2022-08-30T13:21:47.847Z,30.64
2022-08-30T13:23:07.374Z,30.47
2022-08-30T13:24:10.555Z,30.43
2022-08-30T13:25:12.509Z,30.53
2022-08-30T13:26:15.280Z,30.49
2022-08-30T13:27:26.533Z,30.51
2022-08-30T13:28:29.325Z,30.60
2022-08-30T13:29:32.222Z,30.54
2022-08-30T13:30:34.340Z,30.20
2022-08-30T13:31:37.257Z,30.07
2022-08-30T13:32:39.371Z,29.81
2022-08-30T13:33:41.205Z,29.65
2022-08-30T13:34:43.298Z,29.50
2022-08-30T13:35:45.645Z,29.28
2022-08-30T13:36:49.316Z,29.24
2022-08-30T13:37:51.949Z,29.45
2022-08-30T13:38:54.143Z,29.47
2022-08-30T13:39:57.672Z,29.39
2022-08-30T13:41:02.018Z,29.54
2022-08-30T13:43:25.971Z,29.60
2022-08-30T13:44:27.786Z,29.70
2022-08-30T13:45:44.933Z,29.83
2022-08-30T13:46:54.125Z,29.94
2022-08-30T13:47:56.852Z,29.87
2022-08-30T13:49:42.963Z,29.99
2022-08-30T13:50:31.339Z,30.10
2022-08-30T13:51:33.582Z,30.21
2022-08-30T13:52:36.860Z,30.28
2022-08-30T13:53:55.082Z,30.38
2022-08-30T13:54:57.995Z,30.41
2022-08-30T13:56:01.158Z,30.47
2022-08-30T13:57:03.255Z,30.53
2022-08-30T13:58:05.870Z,30.54
2022-08-30T13:59:07.863Z,30.57
2022-08-30T14:00:14.774Z,30.68
2022-08-30T14:01:17.230Z,30.75